Tiempo atmosférico en la estación meteorológica de Valencia De Don Juan, León (788 m.)



Fecha
DESCASC
Temp. máxima en grados centígrados (hora)
DESCASC
Temp. mínima en grados centígrados (hora)
DESCASC
Temp. media en grados centígrados
DESCASC
Racha de viento máxima en m/sg (hora)
DESCASC
Velocidad máxima media en intervalos de 10 minutos(hora)
DESCASC
Precipitaciones diarias en mm
DESCASC
Precipitaciones de 00:00 a 06:00 en mm
DESCASC
Precipitaciones de 06:00 a 12:00 en mm
DESCASC
Precipitaciones de 12:00 a 18:00 en mm
DESCASC
Precipitaciones de 18:00 a 24:00 en mm
DESCASC
07-08-2019 24.3 (15:10) 17.4 (00:00) 20.8 12.22 (17:20) 8.89 (17:20) 1.8 0 0 0 1.8
10-08-2019 25.2 (18:50) 13.4 (00:00) 19.3 8.89 (17:20) 5.83 (21:30) 0 0 0 0 0
24-08-2019 31.8 (16:40) 11.9 (00:00) 21.8 11.11 (00:30) 9.17 (00:20) 0 0 0 0 0
23-08-2019 30.8 (18:50) 8.9 (00:00) 19.8 8.33 (00:50) 5.28 (00:10) 0 0 0 0 0
22-08-2019 28.7 (18:30) 10.5 (00:00) 19.6 11.39 (00:50) 8.06 (00:50) 0 0 0 0 0
21-08-2019 27.2 (19:00) 10.4 (00:00) 18.8 12.78 (23:10) 9.44 (22:50) 0 0 0 0 0
20-08-2019 22.7 (17:10) 9.7 (00:00) 16.2 11.67 (14:00) 8.89 (14:00) 0 0 0 0 0
19-08-2019 24.1 (17:10) 11.6 (00:00) 17.9 12.78 (22:20) 10 (21:00) 0 0 0 0 0
18-08-2019 24.4 (14:10) 13.7 (00:00) 19 11.94 (15:20) 7.78 (15:20) 1.2 0 0 1.2 0
17-08-2019 32.3 (18:20) 13.1 (00:00) 22.7 11.39 (19:20) 8.06 (19:30) 0 0 0 0 0
16-08-2019 30.8 (19:00) 12.2 (00:00) 21.5 8.33 (20:30) 5.56 (20:40) 0 0 0 0 0
15-08-2019 29.1 (17:40) 12.9 (00:00) 21 11.11 (22:00) 8.61 (22:20) 0 0 0 0 0
14-08-2019 28.7 (18:20) 9.8 (00:00) 19.3 9.17 (22:40) 6.11 (20:20) 0 0 0 0 0
13-08-2019 24 (19:50) 8.3 (00:00) 16.2 8.89 (00:30) 6.39 (00:30) 0 0 0 0 0
12-08-2019 20.5 (17:20) 6.8 (00:00) 13.7 9.72 (14:40) 6.11 (22:00) 0 0 0 0 0
11-08-2019 21.4 (16:30) 12 (00:00) 16.7 14.17 (20:00) 9.17 (19:50) 1 1 0 0 0
26-07-2019 24.6 (16:40) 14.2 (00:00) 19.4 9.72 (14:40) 6.67 (23:59) 0.2 0 0.2 0 0
09-08-2019 23.8 (16:10) 16.4 (00:00) 20.1 15.56 (17:00) 11.94 (11:20) 0.8 0 0.8 0 0
08-08-2019 27 (18:10) 17.2 (00:00) 22.1 11.94 (18:20) 8.61 (19:00) 0 0 0 0 0
06-08-2019 28 (18:20) 15.8 (00:00) 21.9 11.11 (19:50) 7.22 (19:50) 0 0 0 0 0
05-08-2019 30.5 (20:00) 14.5 (00:00) 22.5 8.06 (14:40) 5.56 (00:10) 0 0 0 0 0
04-08-2019 31.4 (18:30) 16.1 (00:00) 23.8 9.17 (17:30) 6.39 (18:00) 0 0 0 0 0
03-08-2019 32 (19:10) 13.6 (00:00) 22.8 8.89 (21:50) 5.83 (21:20) 0 0 0 0 0
02-08-2019 30 (18:30) 12.2 (00:00) 21.1 7.78 (23:50) 5.83 (23:59) 0 0 0 0 0
01-08-2019 28.9 (19:30) 12.7 (00:00) 20.8 9.17 (00:20) 6.67 (00:10) 0 0 0 0 0
31-07-2019 24.4 (18:20) 9.1 (00:00) 16.8 8.61 (23:40) 6.39 (23:50) 0 0 0 0 0
30-07-2019 22.9 (19:30) 8.7 (00:00) 15.8 11.39 (03:30) 8.06 (03:40) 0 0 0 0 0
29-07-2019 21.9 (15:30) 13.7 (00:00) 17.8 12.78 (20:30) 9.44 (19:50) 0 0 0 0 0
28-07-2019 25.5 (20:30) 10.7 (00:00) 18.1 6.94 (15:50) 4.72 (20:30) 0 0 0 0 0
27-07-2019 21 (16:40) 12.4 (00:00) 16.7 9.72 (20:20) 7.5 (20:20) 2 1.2 0.8 0 0

Gráficas

Temp. máximas Temp. mínimas Temp. medias Precipitaciones Rachas de viento máximas Velocidades máximas media en intervalos de 10 minutos

Datos horarios

Fecha y hora oficial Temperatura (ºC) Velocidad del viento (km/h) Dirección del viento Racha (km/h) Dirección de racha Precipitación (mm) Presión (hPa) Tendencia (hPa) Humedad (%)
2019-08-24 23:00:00 23.3 8 Norte 12 Norte 0 -- -- 47
2019-08-24 22:00:00 25.8 8 Noroeste 13 Oeste 0 -- -- 40
2019-08-24 21:00:00 27 11 Oeste 16 Oeste 0 -- -- 39
2019-08-24 20:00:00 29.8 9 Oeste 19 Oeste 0 -- -- 31
2019-08-24 19:00:00 31.4 14 Sudoeste 28 Sur 0 -- -- 26
2019-08-24 18:00:00 30.6 18 Sur 28 Sur 0 -- -- 27
2019-08-24 17:00:00 31.2 17 Sur 28 Sur 0 -- -- 24
2019-08-24 16:00:00 31.3 14 Sur 25 Sudoeste 0 -- -- 26
2019-08-24 15:00:00 30.3 12 Sudoeste 22 Sudoeste 0 -- -- 25
2019-08-24 14:00:00 28.7 9 Sur 18 Sudoeste 0 -- -- 30
2019-08-24 13:00:00 26.6 8 Oeste 15 Oeste 0 -- -- 37
2019-08-24 12:00:00 25.4 6 Oeste 14 Sudeste 0 -- -- 40
2019-08-24 11:00:00 21.6 5 Norte 10 Nordeste 0 -- -- 45
2019-08-24 10:00:00 17.3 6 Norte 13 Norte 0 -- -- 63
2019-08-24 09:00:00 13.3 10 Norte 18 Norte 0 -- -- 79
2019-08-24 08:00:00 12.4 14 Nordeste 17 Nordeste 0 -- -- 75
2019-08-24 07:00:00 11.9 9 Norte 12 Norte 0 -- -- 81
2019-08-24 06:00:00 13 7 Norte 10 Noroeste 0 -- -- 78
2019-08-24 05:00:00 14.7 9 Nordeste 17 Este 0 -- -- 65
2019-08-24 04:00:00 15.3 12 Nordeste 15 Este 0 -- -- 59
2019-08-24 03:00:00 16.3 8 Nordeste 12 Nordeste 0 -- -- 53
2019-08-24 02:00:00 16.5 10 Norte 17 Norte 0 -- -- 61
2019-08-24 01:00:00 21.2 18 Este 40 Este 0 -- -- 43
2019-08-24 00:00:00 22 13 Nordeste 18 Norte 0 -- -- 33
2019-08-23 23:00:00 24.8 11 Sur 13 Sur 0 -- -- 26
2019-08-23 22:00:00 26.2 -- -- -- -- 0 -- -- 24
2019-08-23 21:00:00 27.9 11 Sur 18 Sudoeste 0 -- -- 26
2019-08-23 20:00:00 30.1 10 Sur 17 Sur 0 -- -- 22
2019-08-23 19:00:00 30.7 7 Sudoeste 13 Oeste 0 -- -- 21
2019-08-23 18:00:00 30.3 10 Sudoeste 24 Oeste 0 -- -- 21
2019-08-23 17:00:00 29.8 12 Oeste 28 Oeste 0 -- -- 23
2019-08-23 16:00:00 29 6 Norte 20 Noroeste 0 -- -- 26
2019-08-23 15:00:00 28.6 8 Noroeste 19 Oeste 0 -- -- 27
2019-08-23 14:00:00 27.2 5 Norte 13 Sudoeste 0 -- -- 30
2019-08-23 13:00:00 24.6 5 Noroeste 12 Noroeste 0 -- -- 36
2019-08-23 12:00:00 21.9 3 Norte 9 Oeste 0 -- -- 43
2019-08-23 11:00:00 17.7 6 Noroeste 9 Noroeste 0 -- -- 57
2019-08-23 10:00:00 13.4 9 Norte 13 Norte 0 -- -- 69
2019-08-23 09:00:00 11.5 5 Norte 17 Nordeste 0 -- -- 76
2019-08-23 08:00:00 10.1 9 Nordeste 13 Nordeste 0 -- -- 70
2019-08-23 07:00:00 8.9 12 Nordeste 14 Nordeste 0 -- -- 77
2019-08-23 06:00:00 9.8 9 Norte 15 Norte 0 -- -- 77
2019-08-23 05:00:00 9.4 13 Norte 15 Norte 0 -- -- 78
2019-08-23 04:00:00 10.2 12 Norte 16 Norte 0 -- -- 77
2019-08-23 03:00:00 12.4 11 Nordeste 14 Nordeste 0 -- -- 60
2019-08-23 02:00:00 15.1 10 Nordeste 16 Nordeste 0 -- -- 45
2019-08-23 01:00:00 15.7 11 Norte 30 Este 0 -- -- 47
2019-08-23 00:00:00 19.7 20 Este 33 Este 0 -- -- 30
2019-08-22 23:00:00 22.1 19 Este 25 Este 0 -- -- 22
2019-08-22 22:00:00 23.9 3 Norte 5 Nordeste 0 -- -- 25
2019-08-22 21:00:00 25.5 6 Noroeste 13 Noroeste 0 -- -- 25
2019-08-22 20:00:00 27 9 Oeste 20 Oeste 0 -- -- 27
2019-08-22 19:00:00 27.6 17 Oeste 22 Noroeste 0 -- -- 24
2019-08-22 18:00:00 28 5 Nordeste 17 Nordeste 0 -- -- 19
2019-08-22 17:00:00 27.8 8 Este 25 Este 0 -- -- 16
2019-08-22 16:00:00 27.3 4 Nordeste 20 Nordeste 0 -- -- 21
2019-08-22 15:00:00 26.6 5 Norte 22 Este 0 -- -- 26
2019-08-22 14:00:00 25.1 9 Este 21 Este 0 -- -- 28
2019-08-22 13:00:00 23.7 10 Este 23 Este 0 -- -- 28
2019-08-22 12:00:00 22 14 Este 22 Este 0 -- -- 29
2019-08-22 11:00:00 19.6 11 Nordeste 20 Nordeste 0 -- -- 37
2019-08-22 10:00:00 15.1 7 Norte 15 Norte 0 -- -- 66
2019-08-22 09:00:00 12.1 7 Norte 13 Norte 0 -- -- 81
2019-08-22 08:00:00 10.5 9 Norte 11 Norte 0 -- -- 83
2019-08-22 07:00:00 11 7 Norte 12 Norte 0 -- -- 84
2019-08-22 06:00:00 11.6 8 Nordeste 13 Nordeste 0 -- -- 82
2019-08-22 05:00:00 12.8 5 Norte 9 Norte 0 -- -- 79
2019-08-22 04:00:00 13.3 8 Noroeste 21 Norte 0 -- -- 77
2019-08-22 03:00:00 14.8 14 Nordeste 33 Este 0 -- -- 73
2019-08-22 02:00:00 16.2 11 Nordeste 35 Nordeste 0 -- -- 66
2019-08-22 01:00:00 16.9 28 Nordeste 41 Este 0 -- -- 63
2019-08-22 00:00:00 18 27 Este 46 Este 0 -- -- 64
2019-08-21 23:00:00 20.2 33 Este 43 Este 0 -- -- 56
2019-08-21 22:00:00 22.3 13 Este 32 Este 0 -- -- 37
2019-08-21 21:00:00 24.8 3 Nordeste 10 Oeste 0 -- -- 34
2019-08-21 20:00:00 27.1 5 Sudoeste 13 Sudoeste 0 -- -- 27
2019-08-21 19:00:00 27.2 6 Oeste 19 Oeste 0 -- -- 30
2019-08-21 18:00:00 26.8 12 Oeste 21 Oeste 0 -- -- 35
2019-08-21 17:00:00 26.8 12 Oeste 19 Oeste 0 -- -- 32
2019-08-21 16:00:00 25.9 11 Oeste 21 Oeste 0 -- -- 45
2019-08-21 15:00:00 24.7 5 Noroeste 15 Nordeste 0 -- -- 44
2019-08-21 14:00:00 23.3 5 Noroeste 14 Norte 0 -- -- 49
2019-08-21 13:00:00 21.4 8 Nordeste 16 Nordeste 0 -- -- 54
2019-08-21 12:00:00 19.1 8 Nordeste 16 Nordeste 0 -- -- 58
2019-08-21 11:00:00 17.1 9 Nordeste 19 Nordeste 0 -- -- 63
2019-08-21 10:00:00 13.9 11 Nordeste 18 Nordeste 0 -- -- 71
2019-08-21 09:00:00 11.7 10 Norte 14 Norte 0 -- -- 83
2019-08-21 08:00:00 10.4 10 Norte 14 Norte 0 -- -- 86
2019-08-21 07:00:00 10.6 10 Norte 17 Norte 0 -- -- 83
2019-08-21 06:00:00 10.7 12 Norte 20 Nordeste 0 -- -- 83
2019-08-21 05:00:00 12.5 16 Nordeste 22 Nordeste 0 -- -- 75
2019-08-21 04:00:00 12.8 15 Nordeste 26 Nordeste 0 -- -- 75
2019-08-21 03:00:00 13.1 19 Nordeste 32 Este 0 -- -- 75
2019-08-21 02:00:00 13.4 27 Este 37 Este 0 -- -- 73
2019-08-21 01:00:00 14.4 26 Este 40 Este 0 -- -- 65
2019-08-21 00:00:00 15.1 28 Este 41 Este 0 -- -- 62
2019-08-20 23:00:00 15.9 27 Este 37 Este 0 -- -- 57
2019-08-20 22:00:00 17.3 24 Este 37 Este 0 -- -- 54
2019-08-20 21:00:00 19.2 30 Este 38 Este 0 -- -- 46
2019-08-20 20:00:00 21.1 26 Este 36 Este 0 -- -- 41
2019-08-20 19:00:00 21.9 26 Este 39 Este 0 -- -- 39
2019-08-20 18:00:00 22.7 25 Este 37 Este 0 -- -- 37
2019-08-20 17:00:00 22.5 26 Este 40 Este 0 -- -- 39
2019-08-20 16:00:00 21.9 24 Nordeste 39 Este 0 -- -- 44
2019-08-20 15:00:00 21 21 Este 42 Este 0 -- -- 44
2019-08-20 14:00:00 20.4 32 Este 42 Este 0 -- -- 48
2019-08-20 13:00:00 19.8 16 Nordeste 31 Este 0 -- -- 50
2019-08-20 12:00:00 18.6 20 Este 35 Este 0 -- -- 50
2019-08-20 11:00:00 16.8 17 Nordeste 24 Nordeste 0 -- -- 60
2019-08-20 10:00:00 15.2 17 Nordeste 24 Nordeste 0 -- -- 66
2019-08-20 09:00:00 12.4 4 Norte 11 Nordeste 0 -- -- 81
2019-08-20 08:00:00 9.9 8 Nordeste 14 Nordeste 0 -- -- 83
2019-08-20 07:00:00 9.7 14 Nordeste 15 Nordeste 0 -- -- 84
2019-08-20 06:00:00 10.6 7 Norte 13 Norte 0 -- -- 84
2019-08-20 05:00:00 11.1 10 Norte 12 Norte 0 -- -- 84
2019-08-20 04:00:00 12.2 10 Nordeste 15 Nordeste 0 -- -- 78
2019-08-20 03:00:00 13.3 12 Nordeste 16 Nordeste 0 -- -- 73
2019-08-20 02:00:00 14.5 15 Nordeste 20 Nordeste 0 -- -- 68
2019-08-20 01:00:00 15 14 Nordeste 27 Este 0 -- -- 66
2019-08-20 00:00:00 15.4 20 Este 35 Este 0 -- -- 64
2019-08-19 23:00:00 15.8 28 Este 46 Este 0 -- -- 63
2019-08-19 22:00:00 16.4 32 Este 43 Este 0 -- -- 61
2019-08-19 21:00:00 18.2 36 Este 45 Este 0 -- -- 56
2019-08-19 20:00:00 20 31 Este 44 Este 0 -- -- 49
2019-08-19 19:00:00 21.4 23 Este 37 Este 0 -- -- 48
2019-08-19 18:00:00 22.6 15 Sudeste 33 Sudeste 0 -- -- 47
2019-08-19 17:00:00 23.6 4 Este 10 Norte 0 -- -- 42
2019-08-19 16:00:00 23 8 Sudeste 21 Norte 0 -- -- 41
2019-08-19 15:00:00 21.8 7 Nordeste 22 Norte 0 -- -- 45
2019-08-19 14:00:00 20.2 13 Nordeste 31 Nordeste 0 -- -- 52
2019-08-19 13:00:00 19.6 14 Nordeste 30 Nordeste 0 -- -- 61
2019-08-19 12:00:00 18.1 18 Nordeste 27 Este 0 -- -- 62
2019-08-19 11:00:00 16.3 12 Nordeste 21 Nordeste 0 -- -- 66
2019-08-19 10:00:00 14.6 11 Nordeste 16 Nordeste 0 -- -- 75
2019-08-19 09:00:00 12.4 9 Norte 14 Norte 0 -- -- 80
2019-08-19 08:00:00 11.7 4 Norte 11 Norte 0 -- -- 83
2019-08-19 07:00:00 11.7 9 Norte 13 Norte 0 -- -- 82
2019-08-19 06:00:00 11.6 6 Norte 17 Norte 0 -- -- 83
2019-08-19 05:00:00 12 12 Norte 15 Norte 0 -- -- 84
2019-08-19 04:00:00 12.8 8 Norte 13 Norte 0 -- -- 83
2019-08-19 03:00:00 12.7 8 Norte 11 Nordeste 0 -- -- 84
2019-08-19 02:00:00 13.2 6 Nordeste 14 Nordeste 0 -- -- 82
2019-08-19 01:00:00 14.3 13 Nordeste 22 Norte 0 -- -- 79
2019-08-19 00:00:00 15 14 Norte 24 Noroeste 0 -- -- 77
2019-08-18 23:00:00 16.6 15 Norte 25 Norte 0 -- -- 69
2019-08-18 22:00:00 18.3 14 Noroeste 23 Norte 0 -- -- 66
2019-08-18 21:00:00 20.6 12 Noroeste 23 Noroeste 0 -- -- 54
2019-08-18 20:00:00 22.8 14 Noroeste 21 Noroeste 0 -- -- 51
2019-08-18 19:00:00 23.8 13 Oeste 21 Oeste 0 -- -- 55
2019-08-18 18:00:00 22.4 11 Noroeste 23 Noroeste 0 -- -- 63
2019-08-18 17:00:00 21.7 18 Noroeste 27 Noroeste 0 -- -- 65
2019-08-18 16:00:00 19.9 24 Noroeste 43 Noroeste 1.2 -- -- 78
2019-08-18 15:00:00 23.6 10 Noroeste 25 Sudoeste 0 -- -- 51
2019-08-18 14:00:00 24.1 14 Sudoeste 25 Sudoeste 0 -- -- 44
2019-08-18 13:00:00 22.5 10 Sur 22 Sudoeste 0 -- -- 50
2019-08-18 12:00:00 20.5 12 Sudoeste 21 Sudoeste 0 -- -- 61
2019-08-18 11:00:00 18.5 11 Sudoeste 17 Sudoeste 0 -- -- 68
2019-08-18 10:00:00 17.4 6 Oeste 11 Oeste 0 -- -- 74
2019-08-18 09:00:00 16.9 0 Calma -- -- 0 -- -- 74
2019-08-18 08:00:00 15.8 0 Calma 9 Noroeste 0 -- -- 76
2019-08-18 07:00:00 14.7 5 Nordeste 12 Noroeste 0 -- -- 73
2019-08-18 06:00:00 16.5 4 Sur 9 Sudeste 0 -- -- 69
2019-08-18 05:00:00 17.3 0 Calma 7 Sudoeste 0 -- -- 68
2019-08-18 04:00:00 17.2 7 Sur 10 Sur 0 -- -- 69
2019-08-18 03:00:00 18.4 5 Sudoeste 8 Noroeste 0 -- -- 64
2019-08-18 02:00:00 19.3 6 Noroeste 15 Noroeste 0 -- -- 61
2019-08-18 01:00:00 20.1 10 Noroeste 18 Noroeste 0 -- -- 56
2019-08-18 00:00:00 21.8 8 Noroeste 13 Noroeste 0 -- -- 49
2019-08-17 23:00:00 23 11 Noroeste 22 Oeste 0 -- -- 47
2019-08-17 22:00:00 25.1 9 Oeste 20 Oeste 0 -- -- 41
2019-08-17 21:00:00 27.9 12 Oeste 18 Oeste 0 -- -- 37
2019-08-17 20:00:00 30.1 17 Oeste 41 Sudoeste 0 -- -- 33
2019-08-17 19:00:00 31.8 27 Sudoeste 38 Sudoeste 0 -- -- 22
2019-08-17 18:00:00 32 23 Sur 35 Sur 0 -- -- 22
2019-08-17 17:00:00 30.6 14 Sur 22 Sur 0 -- -- 28
2019-08-17 16:00:00 29.6 10 Sudoeste 21 Sudoeste 0 -- -- 30
2019-08-17 15:00:00 28.5 12 Sudoeste 22 Sudoeste 0 -- -- 28
2019-08-17 14:00:00 27.1 9 Oeste 18 Sudoeste 0 -- -- 38
2019-08-17 13:00:00 26 10 Oeste 18 Sudoeste 0 -- -- 36
2019-08-17 12:00:00 23.9 5 Sudoeste 13 Oeste 0 -- -- 44
2019-08-17 11:00:00 20.8 4 Noroeste 10 Noroeste 0 -- -- 56
2019-08-17 10:00:00 16.8 4 Noroeste 7 Norte 0 -- -- 67
2019-08-17 09:00:00 14.6 4 Noroeste 6 Noroeste 0 -- -- 74
2019-08-17 08:00:00 13.5 0 Calma 8 Nordeste 0 -- -- 74
2019-08-17 07:00:00 13.3 8 Nordeste 12 Nordeste 0 -- -- 77
2019-08-17 06:00:00 14.3 8 Norte 10 Norte 0 -- -- 81
2019-08-17 05:00:00 16.7 8 Noroeste 12 Noroeste 0 -- -- 74
2019-08-17 04:00:00 17.4 8 Noroeste 22 Noroeste 0 -- -- 72
2019-08-17 03:00:00 18.3 18 Noroeste 29 Noroeste 0 -- -- 69
2019-08-17 02:00:00 18.3 16 Norte 20 Norte 0 -- -- 67
2019-08-17 01:00:00 20.3 13 Noroeste 22 Noroeste 0 -- -- 57
2019-08-17 00:00:00 21.6 14 Noroeste 22 Noroeste 0 -- -- 51
2019-08-16 23:00:00 22.4 10 Noroeste 21 Noroeste 0 -- -- 41
2019-08-16 22:00:00 23.7 11 Noroeste 27 Noroeste 0 -- -- 34
2019-08-16 21:00:00 26.1 18 Noroeste 30 Noroeste 0 -- -- 30
2019-08-16 20:00:00 29.4 9 Noroeste 14 Oeste 0 -- -- 33
2019-08-16 19:00:00 30.8 8 Sur 17 Sur 0 -- -- 28
2019-08-16 18:00:00 30.4 4 Nordeste 17 Oeste 0 -- -- 31
2019-08-16 17:00:00 29.5 5 Sudeste 17 Oeste 0 -- -- 27
2019-08-16 16:00:00 28.7 12 Oeste 22 Sudoeste 0 -- -- 26
2019-08-16 15:00:00 26.9 13 Oeste 24 Oeste 0 -- -- 39
2019-08-16 14:00:00 26.1 10 Sudoeste 22 Oeste 0 -- -- 45
2019-08-16 13:00:00 24.6 5 Noroeste 12 Noroeste 0 -- -- 49
2019-08-16 12:00:00 22.1 8 Noroeste 18 Oeste 0 -- -- 57
2019-08-16 11:00:00 20.1 7 Oeste 14 Oeste 0 -- -- 65
2019-08-16 10:00:00 17.2 6 Noroeste 10 Noroeste 0 -- -- 73
2019-08-16 09:00:00 14.9 4 Norte 13 Nordeste 0 -- -- 83
2019-08-16 08:00:00 12.5 9 Nordeste 12 Norte 0 -- -- 90
2019-08-16 07:00:00 12.6 5 Nordeste 10 Norte 0 -- -- 89
2019-08-16 06:00:00 14.2 4 Nordeste 11 Nordeste 0 -- -- 82
2019-08-16 05:00:00 14.7 9 Nordeste 12 Nordeste 0 -- -- 81
2019-08-16 04:00:00 15.7 5 Norte 8 Norte 0 -- -- 77
2019-08-16 03:00:00 16 5 Nordeste 15 Este 0 -- -- 75
2019-08-16 02:00:00 17.5 9 Este 13 Este 0 -- -- 69
2019-08-16 01:00:00 18.5 8 Nordeste 24 Este 0 -- -- 63
2019-08-16 00:00:00 19.7 16 Nordeste 36 Este 0 -- -- 61
2019-08-15 23:00:00 20.9 26 Este 40 Este 0 -- -- 58
2019-08-15 22:00:00 23.1 23 Nordeste 40 Este 0 -- -- 51
2019-08-15 21:00:00 26.7 8 Noroeste 16 Noroeste 0 -- -- 41
2019-08-15 20:00:00 27.3 11 Noroeste 14 Noroeste 0 -- -- 40
2019-08-15 19:00:00 29.1 9 Sudoeste 18 Sudoeste 0 -- -- 33
2019-08-15 18:00:00 28.9 7 Sudoeste 19 Noroeste 0 -- -- 34
2019-08-15 17:00:00 28.3 8 Oeste 24 Oeste 0 -- -- 35
2019-08-15 16:00:00 26.8 6 Norte 21 Oeste 0 -- -- 40
2019-08-15 15:00:00 26.5 9 Oeste 22 Sudoeste 0 -- -- 39
2019-08-15 14:00:00 25.2 8 Sudoeste 21 Sur 0 -- -- 46
2019-08-15 13:00:00 24.2 10 Sur 21 Sudoeste 0 -- -- 44
2019-08-15 12:00:00 22.4 7 Sur 17 Sur 0 -- -- 52
2019-08-15 11:00:00 20.4 7 Sur 14 Sur 0 -- -- 62
2019-08-15 10:00:00 17.8 0 Calma 10 Norte 0 -- -- 71
2019-08-15 09:00:00 14.4 8 Norte 9 Noroeste 0 -- -- 85
2019-08-15 08:00:00 14.1 3 Nordeste 15 Nordeste 0 -- -- 81
2019-08-15 07:00:00 13.5 11 Este 15 Nordeste 0 -- -- 85
2019-08-15 06:00:00 14 11 Nordeste 14 Norte 0 -- -- 83
2019-08-15 05:00:00 14.6 9 Norte 14 Norte 0 -- -- 82
2019-08-15 04:00:00 15.8 7 Nordeste 12 Norte 0 -- -- 79
2019-08-15 03:00:00 16.6 4 Nordeste 17 Norte 0 -- -- 78
2019-08-15 02:00:00 17.1 12 Norte 15 Norte 0 -- -- 75
2019-08-15 01:00:00 17.7 11 Norte 18 Norte 0 -- -- 73
2019-08-15 00:00:00 19.2 15 Noroeste 19 Norte 0 -- -- 67
2019-08-14 23:00:00 21.6 17 Noroeste 33 Noroeste 0 -- -- 58
2019-08-14 22:00:00 23.1 19 Noroeste 30 Noroeste 0 -- -- 56
2019-08-14 21:00:00 25.5 19 Noroeste 28 Noroeste 0 -- -- 47
2019-08-14 20:00:00 27.5 18 Noroeste 27 Oeste 0 -- -- 42
2019-08-14 19:00:00 28.5 19 Oeste 30 Oeste 0 -- -- 38
2019-08-14 18:00:00 28.5 14 Oeste 28 Oeste 0 -- -- 40
2019-08-14 17:00:00 28.1 19 Oeste 27 Oeste 0 -- -- 38
2019-08-14 16:00:00 27.3 8 Oeste 24 Sudoeste 0 -- -- 39
2019-08-14 15:00:00 25.7 11 Oeste 24 Oeste 0 -- -- 40
2019-08-14 14:00:00 24.6 13 Sudoeste 22 Sudoeste 0 -- -- 41
2019-08-14 13:00:00 22.5 9 Oeste 18 Oeste 0 -- -- 44
2019-08-14 12:00:00 20.8 4 Noroeste 12 Oeste 0 -- -- 52
2019-08-14 11:00:00 19 5 Sudoeste 10 Noroeste 0 -- -- 54
2019-08-14 10:00:00 15.7 6 Norte 9 Norte 0 -- -- 70
2019-08-14 09:00:00 12.4 5 Norte 8 Norte 0 -- -- 80
2019-08-14 08:00:00 10.2 6 Nordeste 10 Norte 0 -- -- 81
2019-08-14 07:00:00 10 9 Norte 11 Norte 0 -- -- 82
2019-08-14 06:00:00 10.8 7 Nordeste 12 Nordeste 0 -- -- 79
2019-08-14 05:00:00 11.3 8 Norte 13 Norte 0 -- -- 82
2019-08-14 04:00:00 13.2 4 Norte 23 Este 0 -- -- 71
2019-08-14 03:00:00 13.5 9 Norte 27 Sudeste 0 -- -- 70
2019-08-14 02:00:00 15.8 12 Este 20 Nordeste 0 -- -- 55
2019-08-14 01:00:00 16.7 9 Nordeste 16 Noroeste 0 -- -- 46
2019-08-14 00:00:00 17.7 6 Norte 9 Sudeste 0 -- -- 45
2019-08-13 23:00:00 20.7 7 Sudeste 10 Sudeste 0 -- -- 32
2019-08-13 22:00:00 21.9 0 Calma -- -- 0 -- -- 30
2019-08-13 21:00:00 23.3 0 Calma 10 Sur 0 -- -- 30
2019-08-13 20:00:00 23.8 6 Sur 16 Sur 0 -- -- 30
2019-08-13 19:00:00 23.2 5 Nordeste 14 Oeste 0 -- -- 32
2019-08-13 18:00:00 23.2 6 Noroeste 22 Oeste 0 -- -- 28
2019-08-13 17:00:00 22.7 9 Oeste 20 Oeste 0 -- -- 33
2019-08-13 16:00:00 21.8 9 Oeste 22 Sudoeste 0 -- -- 37
2019-08-13 15:00:00 21.1 8 Oeste 19 Oeste 0 -- -- 42
2019-08-13 14:00:00 19.5 6 Norte 12 Este 0 -- -- 46
2019-08-13 13:00:00 18.2 7 Nordeste 17 Sudeste 0 -- -- 49
2019-08-13 12:00:00 16.7 4 Norte 17 Nordeste 0 -- -- 53
2019-08-13 11:00:00 15 12 Este 21 Nordeste 0 -- -- 63
2019-08-13 10:00:00 13.1 13 Nordeste 20 Nordeste 0 -- -- 71
2019-08-13 09:00:00 10.2 6 Norte 12 Este 0 -- -- 85
2019-08-13 08:00:00 8.4 7 Norte 9 Nordeste 0 -- -- 84
2019-08-13 07:00:00 9 3 Norte 6 Norte 0 -- -- 84
2019-08-13 06:00:00 9.2 3 Norte 5 Noroeste 0 -- -- 84
2019-08-13 05:00:00 9.9 4 Norte 15 Este 0 -- -- 78
2019-08-13 04:00:00 10.6 14 Este 21 Este 0 -- -- 77
2019-08-13 03:00:00 11.8 14 Este 27 Este 0 -- -- 73
2019-08-13 02:00:00 13 22 Este 28 Este 0 -- -- 69
2019-08-13 01:00:00 13.3 21 Este 32 Nordeste 0 -- -- 67
2019-08-13 00:00:00 14.3 21 Nordeste 28 Nordeste 0 -- -- 63
2019-08-12 23:00:00 15 14 Este 26 Este 0 -- -- 61
2019-08-12 22:00:00 15.9 22 Este 32 Este 0 -- -- 57
2019-08-12 21:00:00 16.3 15 Norte 27 Norte 0 -- -- 54
2019-08-12 20:00:00 18.4 8 Nordeste 17 Norte 0 -- -- 44
2019-08-12 19:00:00 19.3 10 Norte 23 Norte 0 -- -- 39
2019-08-12 18:00:00 20.3 9 Norte 24 Norte 0 -- -- 36
2019-08-12 17:00:00 20.2 11 Norte 27 Norte 0 -- -- 39
2019-08-12 16:00:00 20.1 12 Norte 31 Norte 0 -- -- 38
2019-08-12 15:00:00 19 14 Norte 35 Norte 0 -- -- 37
2019-08-12 14:00:00 18.1 12 Norte 26 Norte 0 -- -- 43
2019-08-12 13:00:00 17.2 17 Norte 34 Norte 0 -- -- 46
2019-08-12 12:00:00 15.6 20 Norte 31 Norte 0 -- -- 48
2019-08-12 11:00:00 14.4 19 Norte 28 Norte 0 -- -- 51
2019-08-12 10:00:00 11.8 6 Nordeste 15 Noroeste 0 -- -- 70
2019-08-12 09:00:00 9.2 9 Norte 15 Norte 0 -- -- 79
2019-08-12 08:00:00 7.1 7 Nordeste 13 Norte 0 -- -- 86
2019-08-12 07:00:00 7.1 10 Norte 14 Norte 0 -- -- 84
2019-08-12 06:00:00 8.2 12 Norte 17 Noroeste 0 -- -- 82
2019-08-12 05:00:00 8.7 14 Noroeste 18 Noroeste 0 -- -- 81
2019-08-12 04:00:00 9.3 10 Noroeste 13 Noroeste 0 -- -- 77
2019-08-12 03:00:00 10.6 7 Oeste 10 Oeste 0 -- -- 69
2019-08-12 02:00:00 10.9 6 Nordeste 8 Nordeste 0 -- -- 73
2019-08-12 01:00:00 11.8 4 Noroeste 10 Norte 0 -- -- 69
2019-08-12 00:00:00 12.4 9 Norte 13 Noroeste 0 -- -- 66
2019-08-11 23:00:00 13.3 5 Norte 29 Noroeste 0 -- -- 62
2019-08-11 22:00:00 14.6 19 Noroeste 35 Noroeste 0 -- -- 60
2019-08-11 21:00:00 16.2 27 Noroeste 43 Noroeste 0 -- -- 54
2019-08-11 20:00:00 18.1 32 Noroeste 51 Noroeste 0 -- -- 47
2019-08-11 19:00:00 19.8 19 Noroeste 36 Noroeste 0 -- -- 40
2019-08-11 18:00:00 19.8 23 Noroeste 31 Noroeste 0 -- -- 35
2019-08-11 17:00:00 20.8 12 Oeste 24 Oeste 0 -- -- 37
2019-08-11 16:00:00 21.3 10 Oeste 24 Sudoeste 0 -- -- 43
2019-08-11 15:00:00 19.8 13 Oeste 26 Sudoeste 0 -- -- 49
2019-08-11 14:00:00 19.5 11 Oeste 22 Sur 0 -- -- 52
2019-08-11 13:00:00 18.6 8 Oeste 24 Sudoeste 0 -- -- 64
2019-08-11 12:00:00 17.4 14 Sudoeste 21 Sudoeste 0 -- -- 68
2019-08-11 11:00:00 15.8 8 Oeste 17 Oeste 0 -- -- 73
2019-08-11 10:00:00 14.8 5 Sudoeste 10 Oeste 0 -- -- 79
2019-08-11 09:00:00 13.3 2 Oeste 15 Norte 0 -- -- 85
2019-08-11 08:00:00 12.1 10 Norte 33 Sudeste 0 -- -- 87
2019-08-11 07:00:00 12.4 25 Este 32 Sudeste 0 -- -- 85
2019-08-11 06:00:00 12.9 22 Este 33 Este 0 -- -- 85
2019-08-11 05:00:00 13.8 19 Sudeste 27 Sudeste 0.4 -- -- 83
2019-08-11 04:00:00 14.5 13 Sudeste 18 Sudeste 0.6 -- -- 81
2019-08-11 03:00:00 15.4 2 Sudeste 21 Nordeste 0 -- -- 67
2019-08-11 02:00:00 15.6 14 Nordeste 27 Nordeste 0 -- -- 67
2019-08-11 01:00:00 16.2 21 Nordeste 30 Nordeste 0 -- -- 66
2019-08-11 00:00:00 16.5 13 Norte 24 Noroeste 0 -- -- 68
2019-08-10 23:00:00 17.8 13 Noroeste 20 Noroeste 0 -- -- 53
2019-08-10 22:00:00 18.7 12 Noroeste 31 Oeste 0 -- -- 49
2019-08-10 21:00:00 21.5 16 Oeste 27 Oeste 0 -- -- 40
2019-08-10 20:00:00 24.1 11 Sudoeste 20 Sur 0 -- -- 30
2019-08-10 19:00:00 25 9 Sur 20 Sur 0 -- -- 25
2019-08-10 18:00:00 24.2 10 Sur 32 Sur 0 -- -- 28
2019-08-10 17:00:00 24 11 Sur 24 Sur 0 -- -- 32
2019-08-10 16:00:00 22.6 12 Sudeste 22 Sudeste 0 -- -- 37
2019-08-10 15:00:00 21.8 9 Oeste 24 Oeste 0 -- -- 36
2019-08-10 14:00:00 20.4 9 Noroeste 19 Norte 0 -- -- 43
2019-08-10 13:00:00 19.1 8 Noroeste 19 Oeste 0 -- -- 52
2019-08-10 12:00:00 18.3 6 Oeste 18 Oeste 0 -- -- 55
2019-08-10 11:00:00 16.6 11 Noroeste 18 Norte 0 -- -- 60
2019-08-10 10:00:00 15.2 12 Noroeste 20 Noroeste 0 -- -- 70
2019-08-10 09:00:00 13.9 9 Noroeste 12 Noroeste 0 -- -- 75
2019-08-10 08:00:00 13.4 5 Noroeste 10 Oeste 0 -- -- 76
2019-08-10 07:00:00 13.5 10 Noroeste 14 Oeste 0 -- -- 80
2019-08-10 06:00:00 14.5 11 Oeste 15 Oeste 0 -- -- 76
2019-08-10 05:00:00 14.8 8 Noroeste 10 Oeste 0 -- -- 74
2019-08-10 04:00:00 15.2 5 Oeste 11 Oeste 0 -- -- 72
2019-08-10 03:00:00 15.4 5 Noroeste 12 Noroeste 0 -- -- 71
2019-08-10 02:00:00 15.8 8 Sudoeste 12 Noroeste 0 -- -- 68
2019-08-10 01:00:00 15.8 8 Noroeste 12 Noroeste 0 -- -- 66
2019-08-10 00:00:00 16.5 2 Norte 11 Noroeste 0 -- -- 61
2019-08-09 23:00:00 17 5 Noroeste 22 Oeste 0 -- -- 64
2019-08-09 22:00:00 17.7 14 Oeste 30 Oeste 0 -- -- 62
2019-08-09 21:00:00 19.8 20 Sudoeste 33 Sudoeste 0 -- -- 50
2019-08-09 20:00:00 21.1 17 Sudoeste 41 Sudoeste 0 -- -- 45
2019-08-09 19:00:00 22.3 30 Sudoeste 44 Oeste 0 -- -- 40
2019-08-09 18:00:00 22.6 29 Sudoeste 49 Sudoeste 0 -- -- 40
2019-08-09 17:00:00 23.8 38 Sudoeste 56 Sudoeste 0 -- -- 37
2019-08-09 16:00:00 23.7 31 Oeste 52 Sudoeste 0 -- -- 41
2019-08-09 15:00:00 23 35 Sudoeste 54 Sudoeste 0 -- -- 42
2019-08-09 14:00:00 22.6 31 Sudoeste 46 Sudoeste 0 -- -- 40
2019-08-09 13:00:00 21.1 30 Sudoeste 53 Sudoeste 0 -- -- 51
2019-08-09 12:00:00 19.8 36 Sudoeste 56 Sudoeste 0 -- -- 54
2019-08-09 11:00:00 19.1 30 Sudoeste 53 Sudoeste 0 -- -- 65
2019-08-09 10:00:00 16.8 26 Sudoeste 44 Sudoeste 0.2 -- -- 82
2019-08-09 09:00:00 17 23 Sudoeste 43 Sudoeste 0.4 -- -- 86
2019-08-09 08:00:00 18.4 27 Sudoeste 41 Sudoeste 0.2 -- -- 89
2019-08-09 07:00:00 19.6 22 Sur 31 Sudoeste 0 -- -- 78
2019-08-09 06:00:00 19.6 19 Sur 35 Sur 0 -- -- 79
2019-08-09 05:00:00 19.5 21 Sur 34 Sudoeste 0 -- -- 77
2019-08-09 04:00:00 18.8 19 Sur 26 Sur 0 -- -- 80
2019-08-09 03:00:00 18.6 13 Sur 18 Sur 0 -- -- 79
2019-08-09 02:00:00 18.9 8 Sur 10 Sur 0 -- -- 76
2019-08-09 01:00:00 20.9 3 Oeste 9 Oeste 0 -- -- 66
2019-08-09 00:00:00 21.8 5 Sudoeste 15 Sudoeste 0 -- -- 63
2019-08-08 23:00:00 22.4 14 Sudoeste 29 Sudoeste 0 -- -- 61
2019-08-08 22:00:00 23.2 21 Sudoeste 31 Sudoeste 0 -- -- 57
2019-08-08 21:00:00 24.2 19 Oeste 40 Sudoeste 0 -- -- 62
2019-08-08 20:00:00 26 26 Sudoeste 42 Sudoeste 0 -- -- 53
2019-08-08 19:00:00 25.9 31 Sudoeste 43 Sudoeste 0 -- -- 53
2019-08-08 18:00:00 26.4 20 Sudoeste 35 Sudoeste 0 -- -- 54
2019-08-08 17:00:00 25.7 23 Sudoeste 42 Sudoeste 0 -- -- 57
2019-08-08 16:00:00 26.7 27 Sudoeste 39 Sudoeste 0 -- -- 54
2019-08-08 15:00:00 23.7 14 Sudoeste 37 Sudoeste 0 -- -- 68
2019-08-08 14:00:00 22.9 23 Sudoeste 33 Sudoeste 0 -- -- 73
2019-08-08 13:00:00 20.8 13 Sudoeste 22 Sudoeste 0 -- -- 80
2019-08-08 12:00:00 19.8 15 Sudoeste 23 Sur 0 -- -- 81
2019-08-08 11:00:00 17.9 15 Sur 28 Sur 0 -- -- 90
2019-08-08 10:00:00 18.3 24 Sur 34 Sudoeste 0 -- -- 86
2019-08-08 09:00:00 18.3 12 Sur 22 Sur 0 -- -- 87
2019-08-08 08:00:00 17.9 13 Sur 17 Sur 0 -- -- 87
2019-08-08 07:00:00 17.2 6 Sur 19 Sur 0 -- -- 89
2019-08-08 06:00:00 17.5 13 Sudoeste 21 Sudoeste 0 -- -- 88
2019-08-08 05:00:00 17.6 13 Sur 20 Sudoeste 0 -- -- 88
2019-08-08 04:00:00 17.5 12 Sur 25 Sudoeste 0 -- -- 88
2019-08-08 03:00:00 17.6 15 Sudoeste 24 Sudoeste 0 -- -- 86
2019-08-08 02:00:00 17.6 12 Sur 21 Sur 0 -- -- 87
2019-08-08 01:00:00 17.6 14 Sudoeste 20 Sudoeste 0 -- -- 85
2019-08-08 00:00:00 17.8 11 Sudoeste 16 Sudoeste 0 -- -- 85
2019-08-07 23:00:00 17.7 10 Sudoeste 17 Sudoeste 0 -- -- 84
2019-08-07 22:00:00 17.6 11 Sur 18 Sudoeste 0.2 -- -- 89
2019-08-07 21:00:00 17.7 12 Sudoeste 24 Sudoeste 0 -- -- 90
2019-08-07 20:00:00 17.4 19 Sudoeste 36 Sudoeste 1.6 -- -- 88
2019-08-07 19:00:00 20.4 26 Sudoeste 39 Sudoeste 0 -- -- 65
2019-08-07 18:00:00 21.8 26 Sudoeste 44 Sudoeste 0 -- -- 55
2019-08-07 17:00:00 22.9 27 Sudoeste 42 Sur 0 -- -- 54
2019-08-07 16:00:00 23.5 24 Sudoeste 39 Sudoeste 0 -- -- 47
2019-08-07 15:00:00 24.2 21 Sudoeste 31 Sudoeste 0 -- -- 44
2019-08-07 14:00:00 23 17 Sur 26 Sudoeste 0 -- -- 46
2019-08-07 13:00:00 23.6 17 Sudoeste 24 Sudoeste 0 -- -- 44
2019-08-07 12:00:00 23.1 10 Sur 17 Sur 0 -- -- 45
2019-08-07 11:00:00 22.2 3 Noroeste 10 Oeste 0 -- -- 53
2019-08-07 10:00:00 19.8 3 Norte 10 Noroeste 0 -- -- 63
2019-08-07 09:00:00 18.9 3 Norte 6 Norte 0 -- -- 65
2019-08-07 08:00:00 17.5 3 Norte 8 Noroeste 0 -- -- 67
2019-08-07 07:00:00 17.5 7 Noroeste 11 Noroeste 0 -- -- 68
2019-08-07 06:00:00 17.9 4 Noroeste 8 Norte 0 -- -- 66
2019-08-07 05:00:00 18.2 0 Calma 8 Noroeste 0 -- -- 63
2019-08-07 04:00:00 18 8 Noroeste 13 Oeste 0 -- -- 66
2019-08-07 03:00:00 18.4 10 Oeste 19 Oeste 0 -- -- 66
2019-08-07 02:00:00 19 9 Oeste 13 Noroeste 0 -- -- 63
2019-08-07 01:00:00 19.1 10 Noroeste 15 Norte 0 -- -- 64
2019-08-07 00:00:00 19.8 9 Norte 28 Noroeste 0 -- -- 60
2019-08-06 23:00:00 20.7 6 Noroeste 23 Norte 0 -- -- 59
2019-08-06 22:00:00 21.2 14 Norte 30 Noroeste 0 -- -- 55
2019-08-06 21:00:00 22.1 23 Noroeste 39 Noroeste 0 -- -- 55
2019-08-06 20:00:00 23.7 24 Noroeste 40 Oeste 0 -- -- 52
2019-08-06 19:00:00 27.1 16 Oeste 32 Oeste 0 -- -- 36
2019-08-06 18:00:00 27.8 12 Sudoeste 23 Sudoeste 0 -- -- 34
2019-08-06 17:00:00 27.2 6 Sudeste 17 Oeste 0 -- -- 40
2019-08-06 16:00:00 26.8 4 Norte 18 Sudoeste 0 -- -- 44
2019-08-06 15:00:00 25.8 8 Sudoeste 20 Sudoeste 0 -- -- 44
2019-08-06 14:00:00 24.5 11 Sudoeste 19 Sudoeste 0 -- -- 51
2019-08-06 13:00:00 24.1 8 Sur 12 Sudoeste 0 -- -- 52
2019-08-06 12:00:00 22.3 4 Sur 12 Oeste 0 -- -- 57
2019-08-06 11:00:00 20.4 7 Noroeste 12 Noroeste 0 -- -- 69
2019-08-06 10:00:00 17.9 6 Noroeste 10 Noroeste 0 -- -- 80
2019-08-06 09:00:00 15.9 3 Nordeste 8 Noroeste 0 -- -- 82
2019-08-06 08:00:00 17.1 2 Este 9 Este 0 -- -- 76
2019-08-06 07:00:00 16.1 9 Este 10 Este 0 -- -- 76
2019-08-06 06:00:00 15.8 6 Nordeste 8 Nordeste 0 -- -- 75
2019-08-06 05:00:00 17 4 Norte 8 Norte 0 -- -- 75
2019-08-06 04:00:00 17.5 6 Noroeste 12 Este 0 -- -- 75
2019-08-06 03:00:00 18.5 5 Norte 17 Este 0 -- -- 69
2019-08-06 02:00:00 19.3 3 Nordeste 12 Nordeste 0 -- -- 68
2019-08-06 01:00:00 20.1 12 Nordeste 15 Nordeste 0 -- -- 60
2019-08-06 00:00:00 22 8 Noroeste 16 Noroeste 0 -- -- 54
2019-08-05 23:00:00 23.1 12 Noroeste 21 Noroeste 0 -- -- 49
2019-08-05 22:00:00 25 11 Noroeste 19 Noroeste 0 -- -- 45
2019-08-05 21:00:00 29 4 Noroeste 18 Sur 0 -- -- 37
2019-08-05 20:00:00 30.5 12 Sur 18 Sur 0 -- -- 29
2019-08-05 19:00:00 30.4 9 Sur 17 Sur 0 -- -- 30
2019-08-05 18:00:00 29.7 9 Sur 16 Sudeste 0 -- -- 32
2019-08-05 17:00:00 29.1 6 Sur 21 Oeste 0 -- -- 26
2019-08-05 16:00:00 27.4 13 Noroeste 23 Oeste 0 -- -- 36
2019-08-05 15:00:00 27 13 Sudoeste 29 Oeste 0 -- -- 42
2019-08-05 14:00:00 25.6 8 Oeste 17 Sudoeste 0 -- -- 45
2019-08-05 13:00:00 24.2 5 Noroeste 13 Noroeste 0 -- -- 53
2019-08-05 12:00:00 22.4 6 Oeste 13 Noroeste 0 -- -- 59
2019-08-05 11:00:00 20 7 Noroeste 12 Oeste 0 -- -- 66
2019-08-05 10:00:00 18.1 4 Norte 8 Norte 0 -- -- 76
2019-08-05 09:00:00 15.7 6 Norte 8 Norte 0 -- -- 86
2019-08-05 08:00:00 14.6 5 Nordeste 7 Nordeste 0 -- -- 86
2019-08-05 07:00:00 14.8 4 Norte 6 Norte 0 -- -- 85
2019-08-05 06:00:00 14.9 3 Norte 8 Nordeste 0 -- -- 84
2019-08-05 05:00:00 16.2 5 Nordeste 8 Este 0 -- -- 79
2019-08-05 04:00:00 16.6 5 Nordeste 21 Este 0 -- -- 78
2019-08-05 03:00:00 17.7 9 Nordeste 20 Este 0 -- -- 74
2019-08-05 02:00:00 18.3 4 Norte 12 Norte 0 -- -- 70
2019-08-05 01:00:00 18.7 12 Nordeste 24 Nordeste 0 -- -- 70
2019-08-05 00:00:00 19.5 16 Norte 21 Nordeste 0 -- -- 61
2019-08-04 23:00:00 21.9 13 Noroeste 23 Noroeste 0 -- -- 50
2019-08-04 22:00:00 24 12 Noroeste 19 Oeste 0 -- -- 46
2019-08-04 21:00:00 27.4 12 Oeste 28 Sudoeste 0 -- -- 38
2019-08-04 20:00:00 30 21 Sudoeste 32 Oeste 0 -- -- 25
2019-08-04 19:00:00 31 20 Sudoeste 33 Sudoeste 0 -- -- 27
2019-08-04 18:00:00 31 23 Sudoeste 33 Oeste 0 -- -- 24
2019-08-04 17:00:00 30.8 9 Sudoeste 31 Sur 0 -- -- 30
2019-08-04 16:00:00 29.8 15 Sur 27 Sur 0 -- -- 33
2019-08-04 15:00:00 28.5 12 Sudoeste 20 Sur 0 -- -- 43
2019-08-04 14:00:00 27.1 5 Sur 20 Sudoeste 0 -- -- 43
2019-08-04 13:00:00 25.8 8 Sur 16 Sudoeste 0 -- -- 45
2019-08-04 12:00:00 24.3 5 Sur 13 Sur 0 -- -- 50
2019-08-04 11:00:00 22.6 7 Sur 14 Sudoeste 0 -- -- 57
2019-08-04 10:00:00 20 4 Oeste 9 Sudoeste 0 -- -- 68
2019-08-04 09:00:00 17.7 4 Noroeste 5 Noroeste 0 -- -- 76
2019-08-04 08:00:00 16.7 5 Este 9 Nordeste 0 -- -- 78
2019-08-04 07:00:00 16.2 6 Nordeste 8 Nordeste 0 -- -- 79
2019-08-04 06:00:00 16.6 4 Norte 10 Nordeste 0 -- -- 77
2019-08-04 05:00:00 16.5 7 Nordeste 9 Norte 0 -- -- 81
2019-08-04 04:00:00 17.7 5 Nordeste 10 Nordeste 0 -- -- 71
2019-08-04 03:00:00 18.8 6 Nordeste 16 Nordeste 0 -- -- 69
2019-08-04 02:00:00 18.8 10 Nordeste 13 Norte 0 -- -- 72
2019-08-04 01:00:00 19.2 9 Norte 20 Nordeste 0 -- -- 73
2019-08-04 00:00:00 20.8 16 Nordeste 21 Nordeste 0 -- -- 65
2019-08-03 23:00:00 22.9 11 Norte 26 Noroeste 0 -- -- 44
2019-08-03 22:00:00 24.9 17 Noroeste 32 Noroeste 0 -- -- 37
2019-08-03 21:00:00 27.9 19 Noroeste 24 Noroeste 0 -- -- 38
2019-08-03 20:00:00 31.5 11 Sudoeste 23 Sudoeste 0 -- -- 29
2019-08-03 19:00:00 31.6 9 Sur 23 Sur 0 -- -- 25
2019-08-03 18:00:00 31.1 8 Sudeste 24 Sur 0 -- -- 25
2019-08-03 17:00:00 31.1 12 Sur 22 Sur 0 -- -- 24
2019-08-03 16:00:00 30.8 8 Sur 25 Oeste 0 -- -- 26
2019-08-03 15:00:00 30.2 9 Oeste 21 Oeste 0 -- -- 26
2019-08-03 14:00:00 29.2 10 Oeste 17 Oeste 0 -- -- 32
2019-08-03 13:00:00 27.3 7 Noroeste 15 Oeste 0 -- -- 45
2019-08-03 12:00:00 26.4 0 Calma 12 Nordeste 0 -- -- 41
2019-08-03 11:00:00 24.1 4 Norte 14 Este 0 -- -- 49
2019-08-03 10:00:00 20.1 8 Nordeste 13 Este 0 -- -- 60
2019-08-03 09:00:00 16 8 Norte 11 Norte 0 -- -- 81
2019-08-03 08:00:00 14.2 9 Nordeste 12 Nordeste 0 -- -- 79
2019-08-03 07:00:00 13.9 10 Nordeste 12 Norte 0 -- -- 85
2019-08-03 06:00:00 14.2 11 Norte 13 Norte 0 -- -- 83
2019-08-03 05:00:00 14.8 11 Nordeste 14 Nordeste 0 -- -- 79
2019-08-03 04:00:00 16.2 10 Norte 21 Nordeste 0 -- -- 78
2019-08-03 03:00:00 16.9 6 Norte 12 Nordeste 0 -- -- 73
2019-08-03 02:00:00 18.4 5 Nordeste 17 Norte 0 -- -- 61
2019-08-03 01:00:00 17.8 13 Norte 26 Este 0 -- -- 66
2019-08-03 00:00:00 22 21 Este 28 Este 0 -- -- 46
2019-08-02 23:00:00 25.4 10 Este 13 Este 0 -- -- 30
2019-08-02 22:00:00 27.3 4 Sudeste 8 Oeste 0 -- -- 26
2019-08-02 21:00:00 28.8 2 Sur 10 Sur 0 -- -- 24
2019-08-02 20:00:00 29.1 2 Oeste 11 Oeste 0 -- -- 26
2019-08-02 19:00:00 29.4 4 Sur 13 Oeste 0 -- -- 29
2019-08-02 18:00:00 29.7 10 Oeste 24 Oeste 0 -- -- 21
2019-08-02 17:00:00 28.5 17 Noroeste 24 Noroeste 0 -- -- 27
2019-08-02 16:00:00 28.7 12 Oeste 22 Oeste 0 -- -- 32
2019-08-02 15:00:00 27.7 11 Oeste 23 Oeste 0 -- -- 33
2019-08-02 14:00:00 26 5 Nordeste 15 Norte 0 -- -- 39
2019-08-02 13:00:00 24.2 5 Norte 13 Norte 0 -- -- 48
2019-08-02 12:00:00 22.1 4 Norte 14 Norte 0 -- -- 56
2019-08-02 11:00:00 19.1 7 Noroeste 15 Norte 0 -- -- 67
2019-08-02 10:00:00 16.7 10 Norte 15 Norte 0 -- -- 75
2019-08-02 09:00:00 14.3 12 Norte 16 Norte 0 -- -- 84
2019-08-02 08:00:00 12.5 8 Norte 11 Norte 0 -- -- 89
2019-08-02 07:00:00 12.5 10 Norte 13 Norte 0 -- -- 87
2019-08-02 06:00:00 13.1 8 Norte 10 Norte 0 -- -- 85
2019-08-02 05:00:00 14.2 4 Norte 12 Este 0 -- -- 81
2019-08-02 04:00:00 14.9 5 Nordeste 21 Este 0 -- -- 79
2019-08-02 03:00:00 15.2 12 Este 18 Este 0 -- -- 78
2019-08-02 02:00:00 16.4 12 Este 26 Este 0 -- -- 74
2019-08-02 01:00:00 17.3 18 Este 22 Este 0 -- -- 70
2019-08-02 00:00:00 18.7 18 Este 29 Este 0 -- -- 65
2019-08-01 23:00:00 20.5 20 Este 32 Este 0 -- -- 62
2019-08-01 22:00:00 23.7 14 Nordeste 30 Este 0 -- -- 49
2019-08-01 21:00:00 26.4 5 Norte 15 Norte 0 -- -- 33
2019-08-01 20:00:00 28.4 3 Sudeste 13 Sudoeste 0 -- -- 31
2019-08-01 19:00:00 28.8 6 Sudoeste 12 Sur 0 -- -- 26
2019-08-01 18:00:00 27.8 5 Norte 18 Oeste 0 -- -- 32
2019-08-01 17:00:00 27.7 10 Oeste 22 Noroeste 0 -- -- 31
2019-08-01 16:00:00 27.1 11 Sudoeste 23 Oeste 0 -- -- 30
2019-08-01 15:00:00 25.9 10 Oeste 20 Oeste 0 -- -- 37
2019-08-01 14:00:00 25.1 8 Oeste 15 Oeste 0 -- -- 41
2019-08-01 13:00:00 23.5 5 Oeste 12 Norte 0 -- -- 51
2019-08-01 12:00:00 21.7 3 Norte 10 Nordeste 0 -- -- 56
2019-08-01 11:00:00 19.6 6 Norte 12 Norte 0 -- -- 64
2019-08-01 10:00:00 17 5 Norte 11 Norte 0 -- -- 72
2019-08-01 09:00:00 14.2 6 Norte 9 Norte 0 -- -- 82
2019-08-01 08:00:00 13.1 5 Nordeste 8 Nordeste 0 -- -- 79
2019-08-01 07:00:00 12.9 6 Nordeste 9 Nordeste 0 -- -- 80
2019-08-01 06:00:00 13.9 9 Nordeste 12 Este 0 -- -- 76
2019-08-01 05:00:00 13.8 7 Norte 12 Norte 0 -- -- 78
2019-08-01 04:00:00 15.3 8 Nordeste 10 Nordeste 0 -- -- 72
2019-08-01 03:00:00 15.1 9 Norte 17 Nordeste 0 -- -- 76
2019-08-01 02:00:00 16.5 10 Norte 26 Nordeste 0 -- -- 68
2019-08-01 01:00:00 17.6 15 Nordeste 33 Este 0 -- -- 62
2019-08-01 00:00:00 18.8 19 Este 31 Este 0 -- -- 58
2019-07-31 23:00:00 19.9 19 Este 26 Este 0 -- -- 52
2019-07-31 22:00:00 21.6 17 Este 22 Este 0 -- -- 44
2019-07-31 21:00:00 22.2 11 Norte 18 Norte 0 -- -- 46
2019-07-31 20:00:00 23.5 11 Norte 18 Nordeste 0 -- -- 38
2019-07-31 19:00:00 24 14 Nordeste 20 Este 0 -- -- 37
2019-07-31 18:00:00 24.1 9 Nordeste 19 Este 0 -- -- 35
2019-07-31 17:00:00 23.7 10 Nordeste 17 Nordeste 0 -- -- 38
2019-07-31 16:00:00 22.9 8 Nordeste 23 Nordeste 0 -- -- 36
2019-07-31 15:00:00 22.3 13 Este 25 Sudeste 0 -- -- 40
2019-07-31 14:00:00 22.1 10 Sudeste 21 Este 0 -- -- 43
2019-07-31 13:00:00 20.2 9 Nordeste 20 Norte 0 -- -- 47
2019-07-31 12:00:00 18.6 10 Nordeste 24 Nordeste 0 -- -- 59
2019-07-31 11:00:00 16.4 13 Nordeste 23 Nordeste 0 -- -- 60
2019-07-31 10:00:00 14.1 16 Norte 23 Nordeste 0 -- -- 72
2019-07-31 09:00:00 11.6 13 Norte 20 Nordeste 0 -- -- 83
2019-07-31 08:00:00 9.4 9 Norte 14 Norte 0 -- -- 89
2019-07-31 07:00:00 9.3 11 Norte 16 Nordeste 0 -- -- 88
2019-07-31 06:00:00 10.3 10 Nordeste 17 Nordeste 0 -- -- 85
2019-07-31 05:00:00 10.3 11 Nordeste 16 Nordeste 0 -- -- 84
2019-07-31 04:00:00 11 12 Nordeste 15 Nordeste 0 -- -- 82
2019-07-31 03:00:00 11.8 13 Nordeste 19 Nordeste 0 -- -- 78
2019-07-31 02:00:00 12.4 12 Nordeste 22 Nordeste 0 -- -- 78
2019-07-31 01:00:00 13.1 10 Nordeste 21 Nordeste 0 -- -- 71
2019-07-31 00:00:00 14.5 19 Este 36 Este 0 -- -- 66
2019-07-30 23:00:00 16.4 25 Este 40 Este 0 -- -- 60
2019-07-30 22:00:00 20.5 3 Oeste 8 Oeste 0 -- -- 34
2019-07-30 21:00:00 22.5 4 Norte 9 Norte 0 -- -- 29
2019-07-30 20:00:00 22.6 5 Norte 18 Noroeste 0 -- -- 31
2019-07-30 19:00:00 22.6 5 Nordeste 12 Nordeste 0 -- -- 29
2019-07-30 18:00:00 22.1 8 Norte 16 Norte 0 -- -- 26
2019-07-30 17:00:00 22.3 9 Oeste 22 Noroeste 0 -- -- 32
2019-07-30 16:00:00 21.4 9 Noroeste 23 Oeste 0 -- -- 34
2019-07-30 15:00:00 20.6 8 Oeste 20 Nordeste 0 -- -- 39
2019-07-30 14:00:00 19.3 7 Noroeste 16 Noroeste 0 -- -- 41
2019-07-30 13:00:00 17.9 8 Norte 19 Norte 0 -- -- 45
2019-07-30 12:00:00 16.2 10 Norte 22 Noroeste 0 -- -- 49
2019-07-30 11:00:00 14.8 15 Norte 22 Norte 0 -- -- 56
2019-07-30 10:00:00 13.2 15 Norte 23 Noroeste 0 -- -- 64
2019-07-30 09:00:00 10.9 14 Norte 19 Norte 0 -- -- 76
2019-07-30 08:00:00 9 9 Norte 24 Noroeste 0 -- -- 82
2019-07-30 07:00:00 8.9 10 Norte 18 Norte 0 -- -- 83
2019-07-30 06:00:00 9.4 10 Norte 24 Noroeste 0 -- -- 81
2019-07-30 05:00:00 10.3 17 Noroeste 36 Noroeste 0 -- -- 77
2019-07-30 04:00:00 11.1 28 Noroeste 41 Noroeste 0 -- -- 72
2019-07-30 03:00:00 11.4 18 Noroeste 27 Noroeste 0 -- -- 71
2019-07-30 02:00:00 12.2 17 Noroeste 29 Noroeste 0 -- -- 71
2019-07-30 01:00:00 13.1 16 Noroeste 27 Noroeste 0 -- -- 68
2019-07-30 00:00:00 13.8 16 Noroeste 31 Noroeste 0 -- -- 63
2019-07-29 23:00:00 15.2 23 Noroeste 37 Noroeste 0 -- -- 57
2019-07-29 22:00:00 16.6 22 Noroeste 36 Noroeste 0 -- -- 50
2019-07-29 21:00:00 18.9 26 Noroeste 46 Noroeste 0 -- -- 40
2019-07-29 20:00:00 20.2 32 Noroeste 45 Noroeste 0 -- -- 40
2019-07-29 19:00:00 21.4 27 Noroeste 40 Noroeste 0 -- -- 39
2019-07-29 18:00:00 21.4 25 Noroeste 44 Noroeste 0 -- -- 37
2019-07-29 17:00:00 21.7 25 Noroeste 43 Noroeste 0 -- -- 38
2019-07-29 16:00:00 21.9 21 Noroeste 33 Noroeste 0 -- -- 42
2019-07-29 15:00:00 21.7 17 Noroeste 31 Noroeste 0 -- -- 46
2019-07-29 14:00:00 21.4 12 Noroeste 24 Noroeste 0 -- -- 51
2019-07-29 13:00:00 21.4 8 Oeste 24 Sudoeste 0 -- -- 46
2019-07-29 12:00:00 19.5 6 Noroeste 19 Oeste 0 -- -- 51
2019-07-29 11:00:00 18 8 Oeste 16 Oeste 0 -- -- 53
2019-07-29 10:00:00 16.8 11 Sudoeste 19 Sur 0 -- -- 55
2019-07-29 09:00:00 15.2 11 Sur 15 Sur 0 -- -- 61
2019-07-29 08:00:00 13.7 7 Sudoeste 13 Sur 0 -- -- 74
2019-07-29 07:00:00 14.4 3 Oeste 8 Sudoeste 0 -- -- 68
2019-07-29 06:00:00 14.2 4 Oeste 9 Oeste 0 -- -- 71
2019-07-29 05:00:00 14.8 6 Oeste 13 Oeste 0 -- -- 69
2019-07-29 04:00:00 15.1 8 Sudoeste 10 Sudoeste 0 -- -- 69
2019-07-29 03:00:00 16.6 0 Calma 8 Sudoeste 0 -- -- 59
2019-07-29 02:00:00 17 4 Sudoeste 10 Sur 0 -- -- 57
2019-07-29 01:00:00 17.9 5 Oeste 17 Sur 0 -- -- 52
2019-07-29 00:00:00 19.6 14 Sur 18 Sur 0 -- -- 40
2019-07-28 23:00:00 20.6 11 Sudoeste 17 Sudoeste 0 -- -- 41
2019-07-28 22:00:00 22.8 12 Sur 22 Sur 0 -- -- 34
2019-07-28 21:00:00 25.1 14 Sur 24 Sur 0 -- -- 30
2019-07-28 20:00:00 25.3 14 Sur 22 Sur 0 -- -- 29
2019-07-28 19:00:00 24.2 11 Sur 22 Sur 0 -- -- 37
2019-07-28 18:00:00 24.3 9 Sudoeste 20 Sudoeste 0 -- -- 35
2019-07-28 17:00:00 23.4 11 Sudoeste 21 Sudoeste 0 -- -- 38
2019-07-28 16:00:00 22.2 9 Sur 25 Sudoeste 0 -- -- 46
2019-07-28 15:00:00 20.6 8 Noroeste 25 Oeste 0 -- -- 53
2019-07-28 14:00:00 20 10 Sudoeste 24 Sur 0 -- -- 53
2019-07-28 13:00:00 18.6 10 Sudoeste 24 Sudoeste 0 -- -- 56
2019-07-28 12:00:00 17 7 Sudoeste 15 Sur 0 -- -- 60
2019-07-28 11:00:00 15.4 5 Oeste 10 Sudoeste 0 -- -- 69
2019-07-28 10:00:00 13.7 5 Norte 8 Norte 0 -- -- 79
2019-07-28 09:00:00 12.2 5 Norte 7 Norte 0 -- -- 82
2019-07-28 08:00:00 11.1 0 Calma 6 Noroeste 0 -- -- 87
2019-07-28 07:00:00 10.9 3 Sur 7 Sur 0 -- -- 86
2019-07-28 06:00:00 10.9 5 Sudoeste 9 Sudoeste 0 -- -- 86
2019-07-28 05:00:00 11.8 5 Sudoeste 9 Sur 0 -- -- 82
2019-07-28 04:00:00 11.9 5 Norte 10 Este 0 -- -- 76
2019-07-28 03:00:00 12.2 8 Este 15 Sudeste 0 -- -- 76
2019-07-28 02:00:00 11.8 3 Este 12 Nordeste 0 -- -- 85
2019-07-28 01:00:00 12.5 11 Nordeste 14 Nordeste 0 -- -- 78
2019-07-28 00:00:00 13.2 12 Nordeste 22 Nordeste 0 -- -- 75
2019-07-27 23:00:00 14.8 19 Nordeste 24 Nordeste 0 -- -- 68
2019-07-26 12:00:00 -- -- -- -- -- -- -- -- --
2019-07-26 11:00:00 18.2 16 Noroeste 23 Oeste 0 -- -- 65
2019-07-26 10:00:00 16.4 16 Oeste 23 Oeste 0 -- -- 68
2019-07-26 09:00:00 14.8 12 Noroeste 19 Oeste 0 -- -- 74
2019-07-26 08:00:00 14.3 9 Noroeste 19 Noroeste 0 -- -- 78
2019-07-26 07:00:00 14.6 15 Noroeste 20 Noroeste 0.2 -- -- 77
2019-07-26 06:00:00 15.7 13 Noroeste 22 Oeste 0 -- -- 71
2019-07-26 05:00:00 16.3 12 Oeste 22 Oeste 0 -- -- 74
2019-07-26 04:00:00 16.7 6 Noroeste 22 Oeste 0 -- -- 77
2019-07-26 03:00:00 17 8 Noroeste 19 Noroeste 0 -- -- 80
2019-07-26 02:00:00 17.6 15 Noroeste 27 Noroeste 0 -- -- 77
2019-07-26 01:00:00 18.2 17 Noroeste 30 Noroeste 0 -- -- 77
2019-07-26 00:00:00 19.4 19 Noroeste 27 Noroeste 0 -- -- 73